Time;durP1;ratioP1;P1;durP2;ratioP2;P2;SDS_P1;SDS_P2;PMS_P1;PMS_P2;Temp;Humidity;BMP_temperature;BMP_pressure;BME280_temperature;BME280_humidity;BME280_pressure;Samples;Min_cycle;Max_cycle;Signal;HPM_P1;HPM_P2
2023/04/16 00:00:57;;;;;;;14.75;11.27;;;;;;;9.86;70.89;100704.81;4092719;28;20043;-64
2023/04/16 00:03:00;;;;;;;13.95;10.88;;;;;;;10.05;70.81;100699.16;4110362;28;20066;-64
2023/04/16 00:05:04;;;;;;;16.88;13.05;;;;;;;10.00;70.43;100697.31;4107881;28;20043;-64
2023/04/16 00:07:07;;;;;;;16.42;13.05;;;;;;;10.07;69.62;100700.03;4108417;28;20501;-64
2023/04/16 00:09:10;;;;;;;15.25;12.10;;;;;;;9.87;70.37;100691.88;4106121;28;20046;-64
2023/04/16 00:11:13;;;;;;;15.48;12.98;;;;;;;9.78;71.50;100702.03;4125563;28;20049;-64
2023/04/16 00:13:17;;;;;;;14.43;11.57;;;;;;;9.78;71.69;100692.56;4107554;28;20057;-64
2023/04/16 00:15:20;;;;;;;13.60;11.90;;;;;;;9.77;71.40;100688.19;4127261;28;20042;-64
2023/04/16 00:17:23;;;;;;;16.83;13.70;;;;;;;9.81;71.48;100696.91;4113863;28;20046;-64
2023/04/16 00:19:25;;;;;;;15.95;12.35;;;;;;;9.95;70.83;100692.03;4114281;28;20085;-64
2023/04/16 00:21:28;;;;;;;17.75;13.95;;;;;;;9.86;71.04;100704.81;4111867;28;20094;-64
2023/04/16 00:23:31;;;;;;;17.35;15.50;;;;;;;9.86;71.57;100697.03;4113932;28;20043;-64
2023/04/16 00:25:37;;;;;;;16.48;14.13;;;;;;;9.82;71.47;100692.63;4109992;28;20047;-64
2023/04/16 00:27:40;;;;;;;16.75;14.57;;;;;;;9.93;71.24;100689.41;4114751;28;20125;-63
2023/04/16 00:29:44;;;;;;;15.60;13.00;;;;;;;9.82;71.61;100697.81;4122169;28;20069;-64
2023/04/16 00:31:47;;;;;;;15.98;14.02;;;;;;;9.75;71.75;100692.50;4122422;28;20045;-64
2023/04/16 00:33:50;;;;;;;15.52;13.27;;;;;;;9.83;71.64;100689.16;4128513;28;20035;-63
2023/04/16 00:35:53;;;;;;;15.45;13.68;;;;;;;9.78;71.90;100692.56;4109638;28;20050;-64
2023/04/16 00:37:56;;;;;;;16.38;14.02;;;;;;;9.87;71.27;100690.97;4125681;28;20045;-64
2023/04/16 00:39:58;;;;;;;16.02;12.80;;;;;;;9.76;71.68;100698.56;4126702;28;20403;-64
2023/04/16 00:42:01;;;;;;;15.98;13.40;;;;;;;9.83;71.10;100699.53;4127197;28;20097;-64
2023/04/16 00:44:04;;;;;;;16.45;12.43;;;;;;;9.94;70.88;100698.06;4108825;28;20045;-64
2023/04/16 00:46:09;;;;;;;17.85;13.73;;;;;;;9.85;70.97;100703.06;4110686;28;20042;-64
2023/04/16 00:48:12;;;;;;;14.02;11.13;;;;;;;9.91;70.89;100698.00;4110265;28;20574;-64
2023/04/16 00:50:16;;;;;;;15.73;12.82;;;;;;;10.16;70.24;100696.75;4124522;28;20578;-64
2023/04/16 00:52:19;;;;;;;15.00;12.30;;;;;;;10.05;70.43;100695.69;4113498;28;20109;-64
2023/04/16 00:54:22;;;;;;;17.13;13.27;;;;;;;9.95;70.45;100705.00;4105101;28;20038;-64
2023/04/16 00:56:25;;;;;;;15.27;12.40;;;;;;;9.89;70.98;100699.69;4126631;28;20117;-64
2023/04/16 00:58:30;;;;;;;15.30;12.82;;;;;;;9.96;71.33;100698.97;4128917;28;20117;-64
2023/04/16 01:00:33;;;;;;;16.45;12.50;;;;;;;9.98;71.42;100704.19;4122691;28;20051;-64
2023/04/16 01:02:38;;;;;;;17.83;13.88;;;;;;;9.94;71.52;100711.03;4105553;28;20139;-64
2023/04/16 01:04:41;;;;;;;;;;;;;;;9.93;71.70;100707.56;4113739;28;20039;-64
2023/04/16 01:06:44;;;;;;;16.30;13.32;;;;;;;9.92;71.40;100704.94;4109698;28;20412;-64
2023/04/16 01:08:47;;;;;;;15.48;12.68;;;;;;;9.86;71.59;100710.03;4112413;28;20063;-63
2023/04/16 01:10:50;;;;;;;15.73;13.00;;;;;;;9.84;71.42;100706.50;4126674;28;20035;-64
2023/04/16 01:12:54;;;;;;;16.60;12.70;;;;;;;9.85;71.43;100714.31;4108478;28;20066;-63
2023/04/16 01:14:57;;;;;;;18.95;12.65;;;;;;;10.00;70.39;100721.53;4107509;28;20101;-64
2023/04/16 01:17:00;;;;;;;14.32;12.00;;;;;;;9.84;71.26;100711.69;4110590;28;20086;-64
2023/04/16 01:19:04;;;;;;;15.50;11.93;;;;;;;9.74;71.71;100719.28;4114545;28;20531;-64
2023/04/16 01:21:08;;;;;;;14.98;12.95;;;;;;;9.72;71.53;100715.78;4109591;28;20043;-64
2023/04/16 01:23:11;;;;;;;19.05;13.18;;;;;;;9.78;71.38;100721.13;4109384;28;20525;-64
2023/04/16 01:25:15;;;;;;;14.52;11.68;;;;;;;9.72;71.06;100722.69;4124424;28;20067;-64
2023/04/16 01:27:18;;;;;;;17.52;13.60;;;;;;;9.83;71.59;100725.50;4125277;28;20046;-64
2023/04/16 01:29:21;;;;;;;14.70;11.43;;;;;;;9.77;71.73;100713.31;4085934;28;20058;-64
2023/04/16 01:31:25;;;;;;;17.33;13.43;;;;;;;9.73;71.57;100720.13;4123195;28;20126;-64
2023/04/16 01:33:34;;;;;;;18.67;15.40;;;;;;;9.69;71.54;100720.91;4106052;28;20070;-64
2023/04/16 01:35:37;;;;;;;18.25;14.27;;;;;;;9.76;71.52;100721.91;4128161;28;20327;-64
2023/04/16 01:37:41;;;;;;;17.65;14.70;;;;;;;9.76;71.46;100722.78;4128431;28;20500;-64
2023/04/16 01:39:45;;;;;;;20.13;14.65;;;;;;;9.74;71.68;100721.88;4098145;28;20130;-64
2023/04/16 01:41:48;;;;;;;16.73;13.95;;;;;;;9.77;71.22;100727.16;4091880;29;20039;-64
2023/04/16 01:43:51;;;;;;;20.13;14.40;;;;;;;9.87;71.36;100729.94;4114969;28;20121;-65
2023/04/16 01:46:09;;;;;;;19.70;14.88;;;;;;;9.84;70.67;100732.47;4109526;28;20155;-64
2023/04/16 01:48:12;;;;;;;17.25;13.50;;;;;;;9.74;71.21;100732.28;4113563;28;20043;-64
2023/04/16 01:50:15;;;;;;;19.05;14.95;;;;;;;9.74;71.70;100739.19;4115811;28;20043;-64
2023/04/16 01:52:17;;;;;;;18.30;15.00;;;;;;;9.77;71.42;100736.66;4114803;28;20045;-64
2023/04/16 01:54:22;;;;;;;16.50;13.57;;;;;;;9.72;71.45;100728.75;4111858;28;20050;-64
2023/04/16 01:56:25;;;;;;;19.60;14.65;;;;;;;9.95;71.04;100734.44;4126957;28;20042;-65
2023/04/16 01:58:28;;;;;;;18.17;14.50;;;;;;;10.00;70.38;100728.47;4108993;28;20171;-64
2023/04/16 02:00:31;;;;;;;19.55;15.32;;;;;;;9.86;70.46;100731.66;4130132;28;20125;-64
2023/04/16 02:02:35;;;;;;;18.65;14.10;;;;;;;9.64;71.46;100740.69;4109036;28;20043;-64
2023/04/16 02:04:39;;;;;;;17.70;14.55;;;;;;;9.66;71.59;100733.81;4117101;28;20039;-64
2023/04/16 02:06:42;;;;;;;19.50;16.00;;;;;;;9.56;72.21;100737.94;4099174;28;20409;-64
2023/04/16 02:08:45;;;;;;;18.17;15.50;;;;;;;9.79;71.34;100735.84;4115063;28;20907;-65
2023/04/16 02:10:50;;;;;;;19.90;14.40;;;;;;;9.61;71.76;100736.31;4131394;28;20432;-65
2023/04/16 02:12:53;;;;;;;21.38;15.50;;;;;;;9.68;71.17;100739.94;4115216;28;20043;-64
2023/04/16 02:14:56;;;;;;;17.25;14.23;;;;;;;9.64;71.70;100745.00;4129163;28;20038;-64
2023/04/16 02:17:01;;;;;;;21.02;15.85;;;;;;;9.58;72.44;100736.25;4127308;28;20047;-64
2023/04/16 02:19:11;;;;;;;20.63;16.15;;;;;;;9.51;72.36;100734.34;4115209;28;20093;-65
2023/04/16 02:21:15;;;;;;;19.17;15.95;;;;;;;9.64;71.62;100740.69;4106203;28;20401;-64
2023/04/16 02:23:18;;;;;;;19.75;15.23;;;;;;;9.81;71.01;100735.00;4112732;28;20566;-65
2023/04/16 02:25:23;;;;;;;22.48;16.02;;;;;;;9.69;71.78;100744.25;4110427;28;20044;-65
2023/04/16 02:27:30;;;;;;;19.02;14.70;;;;;;;9.68;71.15;100739.94;4112414;28;20063;-65
2023/04/16 02:29:43;;;;;;;19.50;16.85;;;;;;;9.76;71.22;100740.97;4130299;28;20050;-64
2023/04/16 02:31:49;;;;;;;21.52;16.92;;;;;;;9.74;71.27;100736.59;4091712;28;20241;-64
2023/04/16 02:33:53;;;;;;;21.60;15.88;;;;;;;9.69;71.17;100739.06;4112199;28;20037;-64
2023/04/16 02:35:56;;;;;;;21.90;16.02;;;;;;;9.65;71.33;100741.56;4113533;28;20086;-64
2023/04/16 02:37:59;;;;;;;20.55;16.42;;;;;;;9.64;71.94;100745.91;4110976;28;20170;-64
2023/04/16 02:40:02;;;;;;;21.92;17.13;;;;;;;9.82;70.76;100740.22;4131046;28;20054;-64
2023/04/16 02:42:05;;;;;;;18.67;15.45;;;;;;;9.72;70.91;100746.91;4109815;28;20039;-64
2023/04/16 02:44:09;;;;;;;19.35;16.15;;;;;;;9.66;71.17;100743.34;4094553;28;20047;-65
2023/04/16 02:46:12;;;;;;;24.52;18.10;;;;;;;9.68;71.64;100747.72;4115622;28;20141;-65
2023/04/16 02:48:14;;;;;;;17.52;15.25;;;;;;;9.67;71.12;100743.38;4096962;28;20058;-65
2023/04/16 02:50:17;;;;;;;22.40;16.80;;;;;;;9.76;71.37;100751.34;4123576;28;20047;-64
2023/04/16 02:52:20;;;;;;;20.45;17.88;;;;;;;9.68;71.54;100755.50;4129195;28;20101;-64
2023/04/16 02:54:23;;;;;;;20.70;17.17;;;;;;;9.80;70.84;100754.91;4111500;28;20043;-65
2023/04/16 02:56:26;;;;;;;21.58;16.77;;;;;;;9.63;71.66;100751.06;4114615;28;20460;-64
2023/04/16 02:58:29;;;;;;;21.13;17.20;;;;;;;9.61;71.38;100756.22;4128015;28;20121;-64
2023/04/16 03:00:33;;;;;;;23.15;18.15;;;;;;;9.55;71.66;100746.56;4111435;28;20190;-64
2023/04/16 03:02:36;;;;;;;22.15;17.42;;;;;;;9.67;71.88;100753.75;4127385;28;20046;-64
2023/04/16 03:04:39;;;;;;;24.83;18.70;;;;;;;9.73;71.33;100756.47;4110797;28;20042;-64
2023/04/16 03:06:42;;;;;;;20.17;16.10;;;;;;;9.62;71.17;100752.75;4125370;28;20084;-64
2023/04/16 03:08:45;;;;;;;23.63;18.05;;;;;;;9.74;71.17;100759.97;4130086;28;20483;-64
2023/04/16 03:10:48;;;;;;;23.52;18.73;;;;;;;9.70;71.39;100750.34;4107883;28;20440;-64
2023/04/16 03:12:50;;;;;;;22.00;17.92;;;;;;;9.64;71.63;100745.91;4107689;28;20114;-64
2023/04/16 03:14:53;;;;;;;20.42;17.10;;;;;;;9.57;71.86;100747.47;4112818;28;20576;-65
2023/04/16 03:16:58;;;;;;;22.13;18.10;;;;;;;9.67;71.96;100756.34;4114229;28;20568;-64
2023/04/16 03:19:01;;;;;;;19.67;16.52;;;;;;;9.56;71.77;100753.53;4112958;28;20114;-64
2023/04/16 03:21:04;;;;;;;23.02;17.15;;;;;;;9.53;72.14;100748.22;4111052;28;20078;-64
2023/04/16 03:23:07;;;;;;;19.23;15.38;;;;;;;9.44;72.45;100758.41;4114826;28;20053;-64
2023/04/16 03:25:10;;;;;;;23.60;18.10;;;;;;;9.47;72.40;100755.00;4104249;28;20118;-64
2023/04/16 03:27:13;;;;;;;19.90;15.77;;;;;;;9.53;72.31;100760.34;4126393;28;20042;-64
2023/04/16 03:29:15;;;;;;;20.77;16.70;;;;;;;9.59;72.39;100757.88;4115268;28;20437;-64
2023/04/16 03:31:19;;;;;;;22.25;18.10;;;;;;;9.60;72.34;100765.69;4130826;28;20101;-64
2023/04/16 03:33:23;;;;;;;26.67;18.85;;;;;;;9.59;72.02;100766.56;4113708;28;20107;-64
2023/04/16 03:35:27;;;;;;;21.55;16.27;;;;;;;9.62;72.12;100773.53;4114440;28;20042;-64
2023/04/16 03:37:30;;;;;;;20.27;17.08;;;;;;;9.68;71.63;100773.69;4113724;28;20045;-64
2023/04/16 03:39:33;;;;;;;19.70;15.50;;;;;;;9.65;71.95;100768.44;4111716;28;20528;-64
2023/04/16 03:41:36;;;;;;;21.65;17.38;;;;;;;9.59;71.82;100776.03;4125193;28;20129;-64
2023/04/16 03:43:39;;;;;;;21.33;17.25;;;;;;;9.66;71.67;100774.47;4108045;28;20121;-64
2023/04/16 03:45:44;;;;;;;21.90;18.42;;;;;;;9.64;71.80;100782.25;4108913;28;20049;-64
2023/04/16 03:47:51;;;;;;;21.90;16.38;;;;;;;9.55;72.13;100780.31;4108765;28;20528;-64
2023/04/16 03:49:58;;;;;;;22.58;19.08;;;;;;;9.69;71.71;100785.81;4108938;28;20039;-65
2023/04/16 03:52:02;;;;;;;22.38;18.25;;;;;;;9.99;70.70;100774.38;4111190;28;20058;-64
2023/04/16 03:54:05;;;;;;;23.50;18.20;;;;;;;9.64;71.19;100781.34;4108633;28;20118;-64
2023/04/16 03:56:08;;;;;;;23.08;17.23;;;;;;;9.55;72.07;100782.00;4110734;28;20039;-64
2023/04/16 03:58:11;;;;;;;20.27;16.73;;;;;;;9.49;72.37;100781.88;4111692;28;20480;-64
2023/04/16 04:00:14;;;;;;;23.60;18.52;;;;;;;9.69;71.70;100780.59;4096072;28;20043;-64
2023/04/16 04:02:26;;;;;;;21.83;16.00;;;;;;;9.52;71.87;100777.63;4100442;28;20061;-64
2023/04/16 04:04:30;;;;;;;21.73;15.88;;;;;;;9.56;72.02;100778.56;4112314;28;20039;-64
2023/04/16 04:06:34;;;;;;;23.65;18.05;;;;;;;9.60;71.99;100780.41;4112687;28;20129;-64
2023/04/16 04:08:37;;;;;;;24.88;19.00;;;;;;;9.53;72.45;100779.38;4122189;28;20067;-64
2023/04/16 04:10:40;;;;;;;24.25;17.63;;;;;;;9.87;70.78;100784.47;4091582;28;20035;-64
2023/04/16 04:12:45;;;;;;;22.20;16.23;;;;;;;9.65;71.51;100781.41;4106925;28;20045;-64
2023/04/16 04:14:48;;;;;;;22.15;17.02;;;;;;;9.55;71.65;100788.09;4096626;28;20139;-64
2023/04/16 04:16:51;;;;;;;24.48;17.90;;;;;;;9.54;71.68;100790.66;4111741;28;20097;-64
2023/04/16 04:18:54;;;;;;;22.17;17.67;;;;;;;9.51;72.10;100788.00;4097106;28;20050;-65
2023/04/16 04:20:57;;;;;;;23.95;17.63;;;;;;;9.51;72.30;100788.00;4111090;28;20042;-64
2023/04/16 04:23:05;;;;;;;22.90;17.60;;;;;;;9.58;72.36;100788.16;4106613;28;20098;-64
2023/04/16 04:25:08;;;;;;;23.35;16.80;;;;;;;9.53;72.25;100784.56;4127581;28;20042;-64
2023/04/16 04:27:11;;;;;;;24.00;17.45;;;;;;;9.51;72.39;100786.25;4103180;28;20497;-65
2023/04/16 04:29:14;;;;;;;21.73;15.95;;;;;;;9.49;72.24;100781.88;4109302;28;20696;-64
2023/04/16 04:31:17;;;;;;;24.52;18.35;;;;;;;9.46;72.35;100789.59;4102007;28;20486;-64
2023/04/16 04:33:20;;;;;;;23.88;17.90;;;;;;;9.48;72.18;100791.38;4118209;28;20046;-64
2023/04/16 04:35:23;;;;;;;22.20;15.98;;;;;;;9.42;72.29;100786.91;4111534;28;20035;-64
2023/04/16 04:37:26;;;;;;;20.10;15.40;;;;;;;9.41;72.39;100797.25;4096865;28;20069;-64
2023/04/16 04:39:30;;;;;;;21.67;15.60;;;;;;;9.51;72.19;100796.63;4110966;28;20268;-64
2023/04/16 04:41:35;;;;;;;19.35;13.85;;;;;;;9.52;72.29;100792.31;4106504;28;20138;-64
2023/04/16 04:43:38;;;;;;;20.77;15.57;;;;;;;9.74;71.09;100797.19;4106593;28;20043;-64
2023/04/16 04:45:42;;;;;;;20.27;16.13;;;;;;;9.66;71.33;100800.44;4128330;28;20481;-63
2023/04/16 04:47:45;;;;;;;20.45;15.23;;;;;;;9.54;71.64;100798.44;4125038;28;20165;-64
2023/04/16 04:49:48;;;;;;;21.75;15.50;;;;;;;9.57;71.83;100804.56;4121087;23;20042;-68
2023/04/16 04:51:52;;;;;;;20.20;15.70;;;;;;;9.69;71.05;100803.97;4096996;28;20031;-68
2023/04/16 04:53:55;;;;;;;19.45;12.75;;;;;;;9.61;70.96;100811.59;4097688;28;20043;-68
2023/04/16 04:56:00;;;;;;;22.25;15.68;;;;;;;9.68;70.99;100814.31;4085241;29;20039;-68
2023/04/16 04:58:15;;;;;;;19.98;12.85;;;;;;;9.73;70.18;100812.72;4091872;29;20055;-68
2023/04/16 05:00:18;;;;;;;19.05;14.27;;;;;;;9.51;71.33;100819.13;4086973;28;20047;-68
2023/04/16 05:02:29;;;;;;;19.52;13.73;;;;;;;9.50;71.29;100822.56;4100103;28;20453;-68
2023/04/16 05:04:32;;;;;;;19.10;12.70;;;;;;;9.50;71.57;100827.75;4068215;29;20079;-68
2023/04/16 05:06:35;;;;;;;16.05;11.68;;;;;;;9.52;71.30;100828.66;4096392;29;20046;-67
2023/04/16 05:08:38;;;;;;;18.30;13.77;;;;;;;9.81;70.54;100828.47;4093580;28;20513;-68
2023/04/16 05:10:40;;;;;;;17.75;12.73;;;;;;;9.67;70.35;100826.44;4089235;29;20043;-68
2023/04/16 05:12:46;;;;;;;16.50;11.55;;;;;;;9.64;70.48;100830.66;4083995;29;20043;-68
2023/04/16 05:14:50;;;;;;;16.35;11.70;;;;;;;9.57;70.90;100830.53;4096627;29;20043;-68
2023/04/16 05:16:53;;;;;;;17.50;11.75;;;;;;;9.46;71.00;100834.56;4107795;28;20042;-69
2023/04/16 05:18:56;;;;;;;16.52;11.57;;;;;;;9.48;71.12;100838.09;4096001;28;20039;-68
2023/04/16 05:20:59;;;;;;;14.75;11.70;;;;;;;9.70;70.01;100839.50;4085571;29;20493;-68
2023/04/16 05:23:02;;;;;;;15.23;10.63;;;;;;;9.67;70.00;100839.41;4091172;29;20051;-68
2023/04/16 05:25:05;;;;;;;15.63;10.68;;;;;;;9.61;70.54;100847.06;4090724;29;20039;-68
2023/04/16 05:27:08;;;;;;;14.57;10.82;;;;;;;9.62;70.66;100841.00;4089930;29;20036;-68
2023/04/16 05:29:12;;;;;;;16.23;11.82;;;;;;;9.72;70.13;100839.53;4095277;28;20516;-68
2023/04/16 05:31:15;;;;;;;14.48;10.90;;;;;;;9.85;69.48;100843.28;4096224;29;20527;-68
2023/04/16 05:33:18;;;;;;;14.88;10.20;;;;;;;9.71;69.60;100837.75;4106488;28;20090;-68
2023/04/16 05:35:21;;;;;;;15.35;10.65;;;;;;;9.66;69.79;100850.63;4084829;29;20429;-68
2023/04/16 05:37:24;;;;;;;15.38;11.70;;;;;;;9.80;69.60;100850.97;4087364;29;20048;-68
2023/04/16 05:39:27;;;;;;;15.88;11.55;;;;;;;9.74;69.53;100851.72;4089509;29;20039;-68
2023/04/16 05:41:30;;;;;;;14.35;10.20;;;;;;;9.74;69.40;100851.72;4095998;28;20039;-68
2023/04/16 05:43:33;;;;;;;15.65;10.93;;;;;;;9.74;69.59;100856.91;4090388;29;20382;-68
2023/04/16 05:45:39;;;;;;;13.82;9.98;;;;;;;9.72;69.65;100853.38;4089188;29;20099;-68
2023/04/16 05:47:43;;;;;;;15.38;11.05;;;;;;;9.79;69.20;100857.00;4097190;28;20043;-68
2023/04/16 05:49:45;;;;;;;14.90;10.43;;;;;;;9.81;68.88;100859.63;4085113;29;20086;-68
2023/04/16 05:51:48;;;;;;;13.98;10.50;;;;;;;9.73;69.14;100860.31;4098019;29;20146;-68
2023/04/16 05:53:52;;;;;;;16.55;11.02;;;;;;;9.83;69.52;100865.72;4089324;29;20039;-68
2023/04/16 05:55:55;;;;;;;15.55;11.73;;;;;;;9.92;68.68;100863.38;4092526;29;20094;-68
2023/04/16 05:57:58;;;;;;;15.75;11.63;;;;;;;9.87;69.28;100854.56;4089509;29;20086;-68
2023/04/16 06:00:02;;;;;;;16.55;11.98;;;;;;;9.81;69.09;100857.03;4086211;28;20581;-68
2023/04/16 06:02:15;;;;;;;17.48;11.23;;;;;;;9.95;68.35;100864.31;4098428;29;20039;-68
2023/04/16 06:04:18;;;;;;;17.73;13.20;;;;;;;10.11;68.49;100868.13;4089708;29;20131;-68
2023/04/16 06:06:21;;;;;;;15.85;12.07;;;;;;;9.94;68.06;100864.28;4092451;28;20046;-68
2023/04/16 06:08:23;;;;;;;18.80;13.65;;;;;;;9.94;68.84;100874.66;4089211;29;20572;-68
2023/04/16 06:10:26;;;;;;;17.60;12.52;;;;;;;10.09;67.76;100869.81;4086702;28;20044;-67
2023/04/16 06:12:29;;;;;;;17.15;11.95;;;;;;;9.89;68.68;100876.28;4104819;28;20563;-68
2023/04/16 06:14:32;;;;;;;18.65;13.40;;;;;;;10.01;68.49;100876.56;4096863;28;20122;-68
2023/04/16 06:16:35;;;;;;;15.85;10.73;;;;;;;9.87;68.33;100886.63;4080953;29;20458;-67
2023/04/16 06:18:39;;;;;;;17.33;11.85;;;;;;;9.87;68.51;100883.13;4084512;28;20051;-68
2023/04/16 06:20:42;;;;;;;17.10;13.10;;;;;;;10.01;67.73;100879.16;4078121;29;20048;-68
2023/04/16 06:22:45;;;;;;;18.58;14.13;;;;;;;9.90;68.81;100889.31;4069685;29;20119;-68
2023/04/16 06:24:48;;;;;;;16.92;12.27;;;;;;;9.83;68.94;100887.41;4090736;29;20387;-67
2023/04/16 06:26:50;;;;;;;15.98;11.45;;;;;;;9.84;69.08;100885.66;4090006;28;20039;-68
2023/04/16 06:28:53;;;;;;;20.08;14.85;;;;;;;9.87;69.27;100893.53;4102664;28;20039;-68
2023/04/16 06:30:56;;;;;;;18.55;12.95;;;;;;;10.03;68.18;100894.78;4082079;29;20048;-68
2023/04/16 06:32:59;;;;;;;18.25;12.75;;;;;;;9.97;68.54;100895.50;4078430;29;20474;-68
2023/04/16 06:35:04;;;;;;;16.45;12.32;;;;;;;9.98;68.42;100897.28;4084657;29;20103;-68
2023/04/16 06:37:06;;;;;;;17.67;12.52;;;;;;;9.96;68.44;100901.56;4108237;28;20055;-68
2023/04/16 06:39:12;;;;;;;18.73;13.07;;;;;;;9.95;68.69;100899.78;4093694;28;20513;-68
2023/04/16 06:41:15;;;;;;;20.63;14.30;;;;;;;9.95;68.41;100905.84;4086732;28;20043;-68
2023/04/16 06:43:18;;;;;;;18.85;13.50;;;;;;;9.88;68.69;100901.34;4088368;29;20441;-68
2023/04/16 06:45:20;;;;;;;19.95;14.57;;;;;;;9.99;68.43;100903.34;4098449;29;20039;-67
2023/04/16 06:47:23;;;;;;;20.25;14.20;;;;;;;9.90;68.79;100904.00;4098588;29;20047;-68
2023/04/16 06:49:26;;;;;;;20.00;13.75;;;;;;;9.91;69.06;100908.34;4094656;28;20047;-68
2023/04/16 06:51:31;;;;;;;20.35;14.50;;;;;;;9.88;68.85;100905.69;4095090;29;20394;-69
2023/04/16 06:53:36;;;;;;;23.92;14.77;;;;;;;9.83;68.82;100912.47;4091417;29;20039;-68
2023/04/16 06:55:39;;;;;;;21.92;15.13;;;;;;;9.85;68.98;100903.88;4089548;29;20186;-68
2023/04/16 06:57:42;;;;;;;18.60;12.13;;;;;;;9.79;69.67;100912.41;4079648;29;20054;-61
2023/04/16 06:59:45;;;;;;;20.67;14.40;;;;;;;9.97;69.63;100916.28;4079996;29;20044;-68
2023/04/16 07:01:48;;;;;;;24.67;16.92;;;;;;;9.90;69.60;100914.38;4081903;29;20446;-69
2023/04/16 07:03:51;;;;;;;20.95;14.27;;;;;;;9.95;68.93;100905.00;4083204;28;20050;-70
2023/04/16 07:05:55;;;;;;;17.95;12.85;;;;;;;9.82;70.11;100913.34;4088245;29;20415;-69
2023/04/16 07:07:59;;;;;;;20.58;14.18;;;;;;;10.00;69.02;100916.34;4088929;29;20082;-69
2023/04/16 07:10:04;;;;;;;21.88;15.57;;;;;;;9.90;69.24;100907.47;4081640;29;20055;-65
2023/04/16 07:12:07;;;;;;;21.15;15.85;;;;;;;9.84;69.99;100914.22;4088892;29;20090;-70
2023/04/16 07:14:10;;;;;;;19.95;14.25;;;;;;;9.90;69.73;100910.09;4087445;29;20043;-66
2023/04/16 07:16:13;;;;;;;24.13;15.57;;;;;;;9.91;69.38;100910.94;4081167;29;20051;-67
2023/04/16 07:18:16;;;;;;;22.55;15.57;;;;;;;9.97;68.85;100911.09;4083372;28;20048;-67
2023/04/16 07:20:22;;;;;;;20.80;14.27;;;;;;;9.90;69.40;100915.28;4081490;29;20095;-63
2023/04/16 07:22:25;;;;;;;22.95;15.50;;;;;;;9.96;69.55;100912.81;4081880;29;20411;-65
2023/04/16 07:24:29;;;;;;;21.83;15.50;;;;;;;9.86;69.90;100907.38;4092508;28;20042;-65
2023/04/16 07:26:32;;;;;;;25.00;15.48;;;;;;;9.95;69.29;100913.66;4076725;29;20036;-67
2023/04/16 07:28:35;;;;;;;22.23;13.50;;;;;;;9.93;69.69;100919.69;4074730;29;20122;-66
2023/04/16 07:30:38;;;;;;;21.98;14.02;;;;;;;9.92;69.38;100923.09;4086500;29;20044;-67
2023/04/16 07:32:40;;;;;;;25.48;17.02;;;;;;;9.97;69.66;100916.28;4088320;29;20497;-67
2023/04/16 07:34:43;;;;;;;22.67;15.15;;;;;;;9.96;68.95;100925.81;4086889;29;20042;-66
2023/04/16 07:36:46;;;;;;;25.58;16.88;;;;;;;10.18;68.61;100921.13;4084039;29;20067;-66
2023/04/16 07:38:49;;;;;;;20.02;14.10;;;;;;;10.07;69.16;100919.97;4074713;29;20043;-68
2023/04/16 07:40:53;;;;;;;22.13;13.70;;;;;;;10.06;68.84;100926.91;4082081;29;20095;-69
2023/04/16 07:42:56;;;;;;;20.02;13.00;;;;;;;10.06;69.88;100924.31;4085560;29;20067;-69
2023/04/16 07:44:59;;;;;;;21.05;14.20;;;;;;;10.11;69.82;100925.28;4087897;29;20401;-66
2023/04/16 07:47:02;;;;;;;24.77;16.88;;;;;;;10.30;68.81;100923.13;4089177;29;20058;-66
2023/04/16 07:49:07;;;;;;;22.58;15.25;;;;;;;10.25;68.66;100928.22;4082353;28;20047;-66
2023/04/16 07:51:10;;;;;;;19.98;14.65;;;;;;;10.38;68.48;100929.41;4087821;29;20051;-63
2023/04/16 07:53:13;;;;;;;27.58;15.95;;;;;;;10.31;67.83;100933.56;4079626;29;20056;-63
2023/04/16 07:55:16;;;;;;;22.67;15.52;;;;;;;10.25;68.20;100932.53;4086529;29;20045;-67
2023/04/16 07:57:20;;;;;;;20.05;14.27;;;;;;;10.21;68.60;100934.19;4083093;29;20575;-63
2023/04/16 07:59:23;;;;;;;19.63;13.38;;;;;;;10.22;68.57;100935.06;4085953;28;20481;-68
2023/04/16 08:01:26;;;;;;;18.67;14.23;;;;;;;10.20;68.87;100932.41;4077188;29;20048;-73
2023/04/16 08:03:29;;;;;;;19.95;14.35;;;;;;;10.27;68.30;100931.72;4076054;29;20056;-69
2023/04/16 08:05:32;;;;;;;20.02;14.02;;;;;;;10.28;68.52;100940.41;4080829;29;20074;-71
2023/04/16 08:07:35;;;;;;;23.13;14.27;;;;;;;10.27;68.43;100946.44;4090682;28;20043;-77
2023/04/16 08:09:47;;;;;;;20.27;13.65;;;;;;;10.29;68.45;100939.53;4102999;28;20043;-73
2023/04/16 08:11:50;;;;;;;22.98;16.63;;;;;;;10.25;68.66;100942.91;4080352;29;20071;-73
2023/04/16 08:13:54;;;;;;;24.50;14.30;;;;;;;10.35;68.50;100946.66;4082289;29;20449;-73
2023/04/16 08:15:57;;;;;;;21.38;14.13;;;;;;;10.33;68.69;100953.50;4081657;29;20043;-73
2023/04/16 08:18:00;;;;;;;21.17;14.07;;;;;;;10.38;68.07;100954.50;4093956;29;20122;-68
2023/04/16 08:20:03;;;;;;;19.52;13.45;;;;;;;10.44;68.73;100950.34;4072487;29;20143;-70
2023/04/16 08:22:06;;;;;;;20.98;14.27;;;;;;;10.58;67.80;100957.56;4085739;28;20054;-71
2023/04/16 08:24:09;;;;;;;18.38;12.52;;;;;;;10.48;68.26;100957.38;4080848;29;20573;-70
2023/04/16 08:26:12;;;;;;;18.48;13.40;;;;;;;10.60;67.99;100954.16;4079367;28;20103;-74
2023/04/16 08:28:16;;;;;;;19.50;12.75;;;;;;;10.71;66.94;100954.38;4083277;29;20043;-75
2023/04/16 08:30:20;;;;;;;19.50;13.40;;;;;;;10.56;67.67;100951.47;4077230;28;20040;-71
2023/04/16 08:32:23;;;;;;;;;;;;;;;10.51;67.45;100955.66;4069409;29;20048;-69
2023/04/16 08:34:26;;;;;;;19.90;12.25;;;;;;;10.50;67.83;100953.91;4092062;29;20006;-70
2023/04/16 08:36:30;;;;;;;18.45;12.20;;;;;;;10.55;67.25;100953.16;4088510;29;20039;-69
2023/04/16 08:38:33;;;;;;;15.98;11.75;;;;;;;10.53;68.32;100961.75;4082328;29;20039;-72
2023/04/16 08:40:38;;;;;;;17.25;11.60;;;;;;;10.67;67.37;100962.97;4077524;28;20047;-77
2023/04/16 08:42:48;;;;;;;17.95;12.05;;;;;;;10.58;67.67;100965.38;4080355;29;20047;-75
2023/04/16 08:44:57;;;;;;;18.98;12.98;;;;;;;10.60;67.85;100964.56;4089259;29;20053;-63
2023/04/16 08:47:01;;;;;;;16.08;10.75;;;;;;;10.76;72.01;100960.56;4083942;29;20042;-73
2023/04/16 08:49:07;;;;;;;17.73;11.73;;;;;;;11.16;68.71;100977.00;4074561;29;20048;-68
2023/04/16 08:51:11;;;;;;;14.68;11.00;;;;;;;11.07;67.14;100969.00;4084301;29;20062;-68
2023/04/16 08:53:19;;;;;;;16.95;12.48;;;;;;;10.94;66.69;100980.03;4095133;29;20469;-67
2023/04/16 08:55:26;;;;;;;16.08;11.50;;;;;;;10.92;66.58;100981.69;4074939;29;20106;-67
2023/04/16 08:57:33;;;;;;;18.25;11.65;;;;;;;10.72;67.67;100982.16;4086931;29;20039;-67
2023/04/16 08:59:38;;;;;;;15.60;10.77;;;;;;;10.70;67.48;100980.34;4084014;28;20083;-69
2023/04/16 09:01:41;;;;;;;14.43;9.73;;;;;;;10.64;68.10;100984.59;4096188;29;20047;-67
2023/04/16 09:03:47;;;;;;;16.67;11.60;;;;;;;10.56;68.70;100990.47;4086695;29;20048;-67
2023/04/16 09:05:50;;;;;;;13.68;10.32;;;;;;;10.53;69.28;100983.47;4083118;29;20044;-67
2023/04/16 09:07:53;;;;;;;14.63;10.48;;;;;;;10.39;70.25;100988.34;4090491;29;20043;-67
2023/04/16 09:09:59;;;;;;;15.73;10.63;;;;;;;10.37;70.96;100995.22;4094886;28;20493;-67
2023/04/16 09:12:02;;;;;;;15.80;11.43;;;;;;;10.39;70.64;100997.84;4105134;28;20106;-67
2023/04/16 09:14:10;;;;;;;17.55;11.55;;;;;;;10.37;70.67;100996.97;4080476;29;20075;-68
2023/04/16 09:16:14;;;;;;;17.15;11.35;;;;;;;10.34;70.30;101000.34;4085112;29;20043;-67
2023/04/16 09:18:17;;;;;;;16.30;11.60;;;;;;;10.39;70.62;100998.72;4097700;28;20040;-67
2023/04/16 09:20:21;;;;;;;15.13;10.90;;;;;;;10.26;70.96;100999.25;4091255;29;20388;-67
2023/04/16 09:22:24;;;;;;;16.13;10.85;;;;;;;10.06;71.47;101004.84;4092039;29;20047;-69
2023/04/16 09:24:28;;;;;;;21.50;12.07;;;;;;;10.37;70.55;101003.03;4083826;28;20102;-67
2023/04/16 09:26:32;;;;;;;16.90;11.60;;;;;;;10.17;71.56;101001.63;4085313;29;20071;-67
2023/04/16 09:28:42;;;;;;;15.32;10.88;;;;;;;10.03;72.07;101007.38;4084657;29;20063;-68